Terminal Aerodrome Forecast
Issued by NWS

Home | Current Version | Previous Version | Text Only | Print | Product List | Glossary On
Versions: 1 2 3 4 5 6 7 8 9 10 11 12 13 14 15 16 17
000
FTUS45 KRIW 181720
TAFJAC
TAF
KJAC 181720Z 1818/1918 VRB06KT P6SM BKN035
     FM182000 20010KT P6SM FEW035 BKN050 WS020/23030KT
     FM190900 19014KT P6SM VCSH SCT015 BKN025 WS015/23040KT
     FM191200 19015KT 2SM -SN SCT004 BKN012 OVC020 WS012/23035KT
      AMD LTD TO CLD VIS AND WIND=

USA.gov is the U.S. government's official web portal to all federal, state and local government web resources and services.